Time;durP1;ratioP1;P1;durP2;ratioP2;P2;SDS_P1;SDS_P2;PMS_P1;PMS_P2;Temp;Humidity;BMP_temperature;BMP_pressure;BME280_temperature;BME280_humidity;BME280_pressure;Samples;Min_cycle;Max_cycle;Signal;HPM_P1;HPM_P2
2022/01/23 00:01:32;;;;;;;9.50;4.20;;;7.00;1.00;;;;;;5064526;28;20436;-75
2022/01/23 00:03:58;;;;;;;11.23;4.40;;;7.00;1.00;;;;;;5068053;28;20464;-75
2022/01/23 00:06:23;;;;;;;6.20;4.43;;;7.00;1.00;;;;;;5057544;28;20426;-75
2022/01/23 00:08:49;;;;;;;6.40;4.17;;;6.90;1.00;;;;;;5069025;28;20693;-75
2022/01/23 00:11:15;;;;;;;9.87;5.10;;;6.90;1.00;;;;;;5075392;28;20191;-75
2022/01/23 00:19:33;;;;;;;9.07;4.60;;;6.90;1.00;;;;;;5001285;28;20891;-75
2022/01/23 00:21:59;;;;;;;10.33;5.40;;;6.90;1.00;;;;;;5013312;28;20596;-75
2022/01/23 00:32:36;;;;;;;14.40;6.07;;;6.90;1.00;;;;;;5013296;28;20399;-75
2022/01/23 00:35:02;;;;;;;9.80;5.40;;;6.90;1.00;;;;;;5010930;28;20436;-75
2022/01/23 00:37:28;;;;;;;11.20;5.73;;;6.90;1.00;;;;;;5006407;28;20231;-75
2022/01/23 00:39:54;;;;;;;14.73;6.10;;;6.90;1.00;;;;;;5013330;28;20188;-75
2022/01/23 00:42:19;;;;;;;11.23;5.90;;;6.90;1.00;;;;;;5013043;28;20475;-75
2022/01/23 00:44:49;;;;;;;10.77;4.60;;;7.00;1.00;;;;;;5012618;28;20624;-75
2022/01/23 00:47:15;;;;;;;11.87;5.70;;;6.90;1.00;;;;;;5013023;28;20213;-75
2022/01/23 00:49:41;;;;;;;10.57;6.17;;;6.90;1.00;;;;;;5005711;28;20524;-75
2022/01/23 00:52:07;;;;;;;6.90;4.93;;;6.90;1.00;;;;;;5015191;28;20893;-75
2022/01/23 00:54:32;;;;;;;16.90;5.20;;;7.00;1.00;;;;;;5024514;28;20237;-75
2022/01/23 00:56:58;;;;;;;6.40;4.87;;;7.00;1.00;;;;;;5065589;28;20178;-76
2022/01/23 00:59:24;;;;;;;8.53;4.70;;;;;;;;;;5060484;28;20176;-76
2022/01/23 01:01:49;;;;;;;11.17;5.47;;;6.90;1.00;;;;;;5074298;28;20226;-76
2022/01/23 01:04:15;;;;;;;8.40;5.00;;;;;;;;;;5066871;28;20430;-76
2022/01/23 01:06:41;;;;;;;12.33;6.40;;;;;;;;;;5074542;28;20552;-75
2022/01/23 01:09:09;;;;;;;8.17;5.10;;;7.00;1.00;;;;;;5072397;28;20413;-75
2022/01/23 01:17:09;;;;;;;7.47;4.80;;;7.00;1.00;;;;;;5074458;28;20412;-75
2022/01/23 01:36:13;;;;;;;8.83;5.57;;;6.90;1.00;;;;;;5041867;28;20759;-75
2022/01/23 01:38:38;;;;;;;10.67;6.30;;;6.90;1.00;;;;;;5031695;28;20445;-75
2022/01/23 01:41:04;;;;;;;14.83;5.77;;;6.90;1.00;;;;;;5039003;28;20866;-75
2022/01/23 01:43:29;;;;;;;12.00;6.07;;;6.90;1.00;;;;;;5038072;28;20191;-75
2022/01/23 01:45:55;;;;;;;11.20;5.60;;;6.90;1.00;;;;;;5051094;28;20195;-75
2022/01/23 01:48:24;;;;;;;10.27;6.73;;;6.90;1.00;;;;;;5051480;28;20258;-75
2022/01/23 01:50:50;;;;;;;13.63;7.27;;;6.90;1.00;;;;;;5039971;28;20210;-75
2022/01/23 01:53:16;;;;;;;13.83;6.90;;;;;;;;;;5050402;28;20585;-75
2022/01/23 01:55:47;;;;;;;18.77;7.73;;;;;;;;;;5044832;28;20415;-75
2022/01/23 02:00:59;;;;;;;16.53;7.40;;;6.90;1.00;;;;;;5073280;28;20440;-75
2022/01/23 02:08:43;;;;;;;14.60;6.97;;;;;;;;;;5065508;28;20468;-75
2022/01/23 02:11:21;;;;;;;14.60;7.00;;;7.00;1.00;;;;;;5072688;28;20484;-75
2022/01/23 02:14:09;;;;;;;13.43;7.00;;;7.00;1.00;;;;;;5066225;28;20432;-75
2022/01/23 02:17:16;;;;;;;15.10;7.07;;;7.00;1.00;;;;;;5062093;28;20494;-75
2022/01/23 02:55:23;;;;;;;19.43;10.10;;;6.80;1.00;;;;;;5023484;28;20458;-75
2022/01/23 02:57:55;;;;;;;30.00;12.37;;;6.80;1.00;;;;;;5025533;28;20426;-75
2022/01/23 03:00:26;;;;;;;23.23;11.53;;;6.80;1.00;;;;;;5030542;28;20422;-75
2022/01/23 03:02:55;;;;;;;19.67;9.83;;;6.90;1.00;;;;;;5030334;28;20983;-75
2022/01/23 03:08:17;;;;;;;26.63;12.50;;;6.90;1.00;;;;;;5021123;28;20434;-75
2022/01/23 03:10:48;;;;;;;21.63;11.20;;;6.90;1.00;;;;;;5069977;28;20799;-75
2022/01/23 03:16:17;;;;;;;20.63;10.13;;;7.00;1.00;;;;;;5068037;28;20434;-75
2022/01/23 03:24:33;;;;;;;22.80;10.20;;;7.00;1.00;;;;;;5076591;28;20431;-75
2022/01/23 03:29:50;;;;;;;27.50;11.33;;;7.00;1.00;;;;;;5076404;28;20486;-75
2022/01/23 03:32:39;;;;;;;23.13;10.90;;;7.00;1.00;;;;;;5073911;28;20193;-75
2022/01/23 03:35:00;;;;;;;24.27;11.87;;;7.00;1.00;;;;;;5067866;28;20424;-75
2022/01/23 03:37:25;;;;;;;18.07;9.90;;;7.00;1.00;;;;;;5059755;28;20431;-75
2022/01/23 03:39:51;;;;;;;21.77;11.00;;;7.00;1.00;;;;;;5075993;28;20462;-75
2022/01/23 03:42:17;;;;;;;21.40;11.43;;;7.00;1.00;;;;;;5092030;28;20365;-75
2022/01/23 03:44:56;;;;;;;19.53;10.57;;;7.00;1.00;;;;;;5075978;28;20223;-75
2022/01/23 03:47:33;;;;;;;20.03;8.30;;;7.00;1.00;;;;;;5056846;28;20175;-75
2022/01/23 03:49:59;;;;;;;12.77;7.10;;;7.00;1.00;;;;;;5066890;28;20496;-75
2022/01/23 03:52:26;;;;;;;15.30;6.90;;;7.00;1.00;;;;;;5075552;28;20421;-75
2022/01/23 03:54:52;;;;;;;17.30;8.20;;;7.00;1.00;;;;;;5075275;28;20246;-75
2022/01/23 03:57:18;;;;;;;14.43;7.50;;;7.00;1.00;;;;;;5062830;28;20413;-76
2022/01/23 03:59:44;;;;;;;12.13;6.90;;;7.00;1.00;;;;;;5063553;28;20422;-76
2022/01/23 04:02:09;;;;;;;13.50;7.33;;;7.00;1.00;;;;;;5068420;28;20284;-76
2022/01/23 04:07:05;;;;;;;10.77;6.17;;;6.90;1.00;;;;;;5045686;28;20180;-75
2022/01/23 04:09:31;;;;;;;13.40;7.30;;;6.90;1.00;;;;;;5069365;28;20440;-75
2022/01/23 04:11:58;;;;;;;17.80;8.47;;;;;;;;;;5075769;28;20507;-75
2022/01/23 04:14:25;;;;;;;11.60;6.80;;;6.90;1.00;;;;;;5071582;28;20171;-75
2022/01/23 04:33:44;;;;;;;18.00;9.10;;;6.90;1.00;;;;;;4973351;28;20972;-75
2022/01/23 05:00:20;;;;;;;24.37;10.17;;;6.80;1.00;;;;;;5018382;28;20425;-75
2022/01/23 05:05:34;;;;;;;17.50;8.73;;;6.80;1.00;;;;;;5074687;28;20508;-75
2022/01/23 05:08:03;;;;;;;17.10;9.30;;;6.80;1.00;;;;;;5059465;28;20422;-75
2022/01/23 05:10:29;;;;;;;17.83;9.27;;;6.80;1.00;;;;;;5066692;28;20975;-75
2022/01/23 05:12:55;;;;;;;18.03;10.10;;;6.80;1.00;;;;;;5074573;28;20420;-75
2022/01/23 05:15:22;;;;;;;18.20;9.43;;;6.80;1.00;;;;;;5074399;28;20171;-75
2022/01/23 05:17:48;;;;;;;17.33;8.70;;;6.80;1.00;;;;;;5073449;28;20795;-75
2022/01/23 05:20:15;;;;;;;17.73;8.80;;;6.80;1.00;;;;;;5065810;28;20430;-75
2022/01/23 05:22:46;;;;;;;19.23;9.87;;;6.80;1.00;;;;;;5065413;28;20433;-75
2022/01/23 05:25:19;;;;;;;15.47;9.50;;;6.80;1.00;;;;;;5073915;28;20409;-76
2022/01/23 05:27:46;;;;;;;19.17;10.37;;;6.80;1.00;;;;;;5067270;28;20409;-75
2022/01/23 05:30:11;;;;;;;19.93;9.10;;;8.40;1.00;;;;;;5067649;28;20488;-75
2022/01/23 05:32:41;;;;;;;16.33;8.73;;;6.80;1.00;;;;;;5073964;28;21009;-75
2022/01/23 05:35:08;;;;;;;17.43;9.37;;;6.70;1.00;;;;;;5070466;28;20422;-75
2022/01/23 05:37:36;;;;;;;17.00;8.67;;;6.70;1.00;;;;;;5052538;28;20508;-75
2022/01/23 05:40:03;;;;;;;17.40;8.90;;;6.70;1.00;;;;;;5061659;28;20792;-75
2022/01/23 05:42:28;;;;;;;19.47;8.97;;;6.70;1.00;;;;;;5074275;28;20437;-75
2022/01/23 05:44:54;;;;;;;17.87;9.90;;;;;;;;;;5073517;28;20823;-75
2022/01/23 05:47:20;;;;;;;13.90;8.60;;;6.70;1.00;;;;;;5073701;28;20167;-76
2022/01/23 05:49:46;;;;;;;18.10;9.10;;;6.60;1.00;;;;;;5065327;28;20508;-76
2022/01/23 05:52:11;;;;;;;18.23;9.50;;;6.70;1.00;;;;;;5073359;28;20241;-75
2022/01/23 05:54:37;;;;;;;21.30;10.10;;;6.60;1.00;;;;;;5073443;28;20232;-75
2022/01/23 05:57:04;;;;;;;16.97;10.07;;;6.60;1.00;;;;;;5064858;28;20174;-75
2022/01/23 05:59:30;;;;;;;15.90;8.73;;;6.60;1.00;;;;;;5067122;28;20187;-75
2022/01/23 06:01:56;;;;;;;19.97;9.53;;;;;;;;;;5067720;28;20436;-75
2022/01/23 06:04:24;;;;;;;20.50;9.73;;;6.60;1.00;;;;;;5073259;28;20187;-76
2022/01/23 06:06:50;;;;;;;15.53;7.80;;;6.50;1.00;;;;;;5073299;28;20423;-76
2022/01/23 06:09:17;;;;;;;16.20;8.77;;;6.60;1.00;;;;;;5070167;28;20496;-75
2022/01/23 06:11:42;;;;;;;24.60;8.43;;;6.60;1.00;;;;;;5053195;28;20536;-75
2022/01/23 06:14:09;;;;;;;15.83;8.17;;;6.60;1.00;;;;;;5053276;28;20494;-76
2022/01/23 06:16:36;;;;;;;17.70;9.03;;;6.60;1.00;;;;;;5054136;28;20430;-75
2022/01/23 06:19:05;;;;;;;15.40;7.70;;;6.50;1.00;;;;;;5056420;28;20901;-75
2022/01/23 06:21:34;;;;;;;16.40;8.67;;;6.50;1.00;;;;;;5064077;28;20398;-75
2022/01/23 06:24:10;;;;;;;15.47;8.27;;;6.40;1.00;;;;;;5055952;28;20444;-75
2022/01/23 06:26:46;;;;;;;15.67;7.30;;;6.40;1.00;;;;;;5057620;28;20503;-75
2022/01/23 06:29:13;;;;;;;12.40;7.10;;;6.40;1.00;;;;;;5061038;28;20423;-75
2022/01/23 06:31:40;;;;;;;17.70;6.90;;;6.40;1.00;;;;;;5060408;28;20451;-75
2022/01/23 06:34:22;;;;;;;15.40;7.87;;;6.40;1.00;;;;;;5066775;28;20947;-75
2022/01/23 06:40:22;;;;;;;9.93;5.90;;;6.40;1.00;;;;;;5053524;28;20422;-75
2022/01/23 06:42:52;;;;;;;15.90;7.00;;;6.40;1.00;;;;;;5066423;28;20405;-75
2022/01/23 06:45:28;;;;;;;10.43;7.07;;;6.40;1.00;;;;;;5060213;28;20422;-76
2022/01/23 06:47:58;;;;;;;12.23;6.37;;;6.40;1.00;;;;;;5059792;28;20873;-75
2022/01/23 06:50:34;;;;;;;19.57;8.33;;;6.40;1.00;;;;;;5053186;28;20527;-75
2022/01/23 06:53:10;;;;;;;13.17;7.20;;;6.40;1.00;;;;;;5055894;28;20413;-75
2022/01/23 06:55:40;;;;;;;19.27;8.40;;;6.50;1.00;;;;;;5063221;28;20406;-75
2022/01/23 06:58:10;;;;;;;17.50;8.03;;;6.40;1.00;;;;;;5059973;28;20798;-75
2022/01/23 07:00:36;;;;;;;18.33;7.67;;;6.40;1.00;;;;;;5063096;28;20480;-75
2022/01/23 07:03:02;;;;;;;17.23;7.83;;;6.40;1.00;;;;;;5060297;28;20425;-75
2022/01/23 07:05:27;;;;;;;18.77;9.40;;;6.40;1.00;;;;;;5071922;28;20166;-75
2022/01/23 07:07:53;;;;;;;17.97;9.57;;;6.40;1.00;;;;;;5088914;28;20433;-75
2022/01/23 07:10:46;;;;;;;15.10;8.00;;;6.40;1.00;;;;;;5060112;28;20197;-76
2022/01/23 07:13:12;;;;;;;17.93;7.47;;;6.40;1.00;;;;;;5049978;28;20220;-75
2022/01/23 07:15:38;;;;;;;18.97;9.27;;;;;;;;;;5073657;28;20483;-75
2022/01/23 07:18:03;;;;;;;16.20;8.00;;;6.40;1.00;;;;;;5060543;28;20541;-75
2022/01/23 07:20:47;;;;;;;22.70;8.10;;;6.40;1.00;;;;;;5075008;28;20431;-75
2022/01/23 07:23:13;;;;;;;20.83;7.97;;;6.40;1.00;;;;;;5069040;28;20214;-75
2022/01/23 07:25:42;;;;;;;16.03;8.40;;;6.40;1.00;;;;;;5059894;28;20428;-75
2022/01/23 07:28:14;;;;;;;15.60;8.50;;;6.40;1.00;;;;;;5060114;28;21058;-75
2022/01/23 07:30:50;;;;;;;16.03;7.83;;;6.40;1.00;;;;;;5065273;28;20453;-75
2022/01/23 07:33:16;;;;;;;15.93;8.03;;;6.30;1.00;;;;;;5066728;28;20784;-75
2022/01/23 07:35:48;;;;;;;15.37;7.30;;;6.30;1.00;;;;;;5075486;28;20440;-75
2022/01/23 07:38:17;;;;;;;17.70;8.53;;;6.40;1.00;;;;;;5079022;28;20900;-75
2022/01/23 07:40:50;;;;;;;15.80;7.60;;;6.40;1.00;;;;;;5060000;28;20441;-75
2022/01/23 07:43:22;;;;;;;27.63;9.07;;;6.40;1.00;;;;;;5068695;28;20434;-75
2022/01/23 07:45:48;;;;;;;16.90;8.43;;;6.50;1.00;;;;;;5068191;28;20440;-75
2022/01/23 07:48:14;;;;;;;15.67;7.63;;;6.40;1.00;;;;;;5066379;28;20416;-75
2022/01/23 07:50:40;;;;;;;16.10;8.33;;;6.50;1.00;;;;;;5071709;28;20210;-75
2022/01/23 07:53:05;;;;;;;17.13;8.60;;;6.50;1.00;;;;;;5063870;28;20212;-75
2022/01/23 07:55:40;;;;;;;17.93;8.77;;;6.50;1.00;;;;;;5069618;28;20419;-75
2022/01/23 07:58:15;;;;;;;19.83;8.20;;;6.50;1.00;;;;;;5066576;28;20652;-75
2022/01/23 08:00:41;;;;;;;15.17;8.20;;;6.60;1.00;;;;;;5066957;28;20520;-76
2022/01/23 08:03:08;;;;;;;16.90;7.67;;;6.60;1.00;;;;;;5061670;28;20921;-75
2022/01/23 08:05:35;;;;;;;13.73;7.37;;;6.60;1.00;;;;;;5069983;28;20955;-75
2022/01/23 08:08:01;;;;;;;15.03;7.37;;;;;;;;;;5057083;28;20501;-75
2022/01/23 08:10:28;;;;;;;12.40;7.17;;;6.70;1.00;;;;;;5068966;28;20505;-75
2022/01/23 08:12:54;;;;;;;23.20;8.37;;;6.70;1.00;;;;;;5057286;28;20491;-75
2022/01/23 08:15:23;;;;;;;17.13;8.23;;;;;;;;;;5069065;28;20896;-75
2022/01/23 08:17:52;;;;;;;18.30;7.40;;;6.70;1.00;;;;;;5063259;28;20508;-75
2022/01/23 08:20:18;;;;;;;16.00;8.47;;;6.80;1.00;;;;;;5063244;28;20461;-75
2022/01/23 08:22:46;;;;;;;15.30;7.73;;;6.80;1.00;;;;;;5070084;28;20461;-74
2022/01/23 08:25:12;;;;;;;14.73;7.57;;;6.90;1.00;;;;;;5058213;28;20250;-76
2022/01/23 08:27:52;;;;;;;15.40;8.33;;;6.90;1.00;;;;;;5069734;28;20497;-76
2022/01/23 08:30:23;;;;;;;12.33;7.67;;;7.00;1.00;;;;;;5071393;28;20194;-76
2022/01/23 08:32:52;;;;;;;16.50;8.20;;;7.00;1.00;;;;;;5074260;28;20472;-77
2022/01/23 08:35:20;;;;;;;12.10;7.77;;;7.10;1.00;;;;;;5052850;28;20410;-76
2022/01/23 08:37:46;;;;;;;19.20;8.10;;;7.20;1.00;;;;;;5056185;28;20516;-76
2022/01/23 08:40:19;;;;;;;17.60;8.00;;;7.30;1.00;;;;;;5069452;28;20418;-76
2022/01/23 08:42:46;;;;;;;14.40;8.13;;;7.30;1.00;;;;;;5067142;28;20420;-75
2022/01/23 08:45:12;;;;;;;18.53;9.70;;;7.40;1.00;;;;;;5056315;28;20418;-78
2022/01/23 08:47:41;;;;;;;18.40;9.07;;;7.40;1.00;;;;;;5055835;28;20452;-76
2022/01/23 08:50:16;;;;;;;19.70;9.80;;;7.50;1.00;;;;;;5062523;28;20919;-76
2022/01/23 08:52:46;;;;;;;20.67;8.50;;;7.60;1.00;;;;;;5068805;28;20405;-76
2022/01/23 08:55:28;;;;;;;23.33;9.30;;;7.60;1.00;;;;;;5062871;28;20950;-76
2022/01/23 08:57:59;;;;;;;19.63;9.90;;;7.70;1.00;;;;;;5075828;28;20397;-76
2022/01/23 09:00:29;;;;;;;19.07;10.00;;;7.80;1.00;;;;;;5065992;28;20406;-76
2022/01/23 09:02:58;;;;;;;17.30;9.77;;;7.90;1.00;;;;;;5057942;28;20838;-75
2022/01/23 09:05:28;;;;;;;26.07;11.87;;;8.00;1.00;;;;;;5055459;28;20460;-76
2022/01/23 09:07:59;;;;;;;22.10;10.67;;;8.00;1.00;;;;;;5060360;28;20417;-76
2022/01/23 09:10:51;;;;;;;28.93;12.03;;;8.10;1.00;;;;;;5075514;28;20545;-76
2022/01/23 09:16:16;;;;;;;20.10;10.90;;;10.00;1.00;;;;;;5025371;28;20432;-75
2022/01/23 09:18:47;;;;;;;29.00;11.50;;;8.30;1.00;;;;;;5013673;28;20411;-76
2022/01/23 09:21:13;;;;;;;27.43;11.63;;;8.40;1.00;;;;;;4991482;28;20978;-75
2022/01/23 09:23:46;;;;;;;20.97;10.87;;;8.50;1.00;;;;;;5020082;28;20416;-75
2022/01/23 09:26:19;;;;;;;19.33;10.03;;;8.60;1.00;;;;;;5025083;28;20197;-76
2022/01/23 09:28:56;;;;;;;18.33;10.30;;;8.60;1.00;;;;;;5027786;28;20424;-76
2022/01/23 09:33:53;;;;;;;18.40;10.33;;;8.80;1.00;;;;;;5020478;28;20426;-75
2022/01/23 09:36:22;;;;;;;21.53;10.57;;;8.80;1.00;;;;;;5033065;28;20507;-75
2022/01/23 09:38:52;;;;;;;20.40;11.30;;;8.80;1.00;;;;;;5019613;28;20427;-75
2022/01/23 09:41:21;;;;;;;20.80;10.47;;;8.80;1.00;;;;;;5020019;28;20436;-75
2022/01/23 09:43:49;;;;;;;24.53;10.67;;;8.90;1.00;;;;;;5007390;28;20856;-76
2022/01/23 09:46:15;;;;;;;25.07;11.27;;;9.10;1.00;;;;;;5015646;28;20792;-75
2022/01/23 09:48:43;;;;;;;19.53;9.40;;;9.10;1.00;;;;;;5020225;28;20421;-75
2022/01/23 09:51:16;;;;;;;17.00;9.17;;;9.10;1.00;;;;;;5021387;28;20212;-75
2022/01/23 09:53:51;;;;;;;20.77;9.33;;;9.00;1.00;;;;;;5062957;28;20434;-75
2022/01/23 09:56:30;;;;;;;18.10;8.37;;;9.10;1.00;;;;;;5052136;28;20461;-75
2022/01/23 09:58:59;;;;;;;16.80;9.40;;;9.10;1.00;;;;;;5065791;28;20405;-73
2022/01/23 10:01:25;;;;;;;16.90;8.83;;;9.20;1.00;;;;;;5069393;28;20437;-76
2022/01/23 10:03:53;;;;;;;19.97;9.63;;;9.20;1.00;;;;;;5055965;28;20521;-79
2022/01/23 10:06:19;;;;;;;18.50;9.03;;;9.30;1.00;;;;;;5059837;28;20171;-75
2022/01/23 10:08:49;;;;;;;19.83;9.03;;;9.90;1.00;;;;;;5062187;28;20882;-76
2022/01/23 10:11:23;;;;;;;18.37;8.17;;;9.40;1.00;;;;;;5057920;28;20848;-81
2022/01/23 10:13:53;;;;;;;20.60;8.37;;;9.50;1.00;;;;;;5057294;28;20893;-77
2022/01/23 10:16:19;;;;;;;14.17;8.37;;;9.50;1.00;;;;;;5061361;28;20519;-76
2022/01/23 10:18:45;;;;;;;19.37;9.20;;;9.70;1.00;;;;;;5072910;28;20976;-76
2022/01/23 10:21:11;;;;;;;9.20;5.60;;;9.50;1.00;;;;;;5073358;28;20252;-76
2022/01/23 10:23:37;;;;;;;10.30;5.80;;;9.50;1.00;;;;;;5073089;28;20421;-76
2022/01/23 10:26:04;;;;;;;8.77;5.73;;;10.20;1.00;;;;;;5073155;28;20416;-76
2022/01/23 10:28:32;;;;;;;13.23;6.27;;;10.10;1.00;;;;;;5072898;28;20449;-76
2022/01/23 10:31:02;;;;;;;10.93;6.43;;;9.50;1.00;;;;;;5072815;28;20472;-75
2022/01/23 10:33:38;;;;;;;10.93;5.50;;;10.90;1.00;;;;;;5072955;28;20781;-75
2022/01/23 10:36:04;;;;;;;13.77;7.33;;;9.60;1.00;;;;;;5056273;28;20422;-75
2022/01/23 10:38:36;;;;;;;10.63;6.03;;;9.70;1.00;;;;;;5063015;28;20437;-75
2022/01/23 10:49:47;;;;;;;9.00;5.50;;;9.80;1.00;;;;;;5062921;28;20803;-76
2022/01/23 10:52:30;;;;;;;10.30;6.00;;;9.80;1.00;;;;;;5072751;28;20445;-76
2022/01/23 10:54:56;;;;;;;8.67;5.70;;;9.70;1.00;;;;;;5072511;28;20906;-76
2022/01/23 10:57:22;;;;;;;10.80;5.77;;;10.50;1.00;;;;;;5064515;28;20424;-75
2022/01/23 10:59:54;;;;;;;8.57;5.23;;;10.80;1.00;;;;;;5072838;28;20443;-75
2022/01/23 11:02:24;;;;;;;13.20;5.83;;;9.60;1.00;;;;;;5072601;28;20437;-75
2022/01/23 11:04:55;;;;;;;8.53;4.63;;;9.70;1.00;;;;;;5072439;28;20478;-75
2022/01/23 11:07:22;;;;;;;11.30;5.30;;;9.70;1.00;;;;;;5072481;28;20443;-75
2022/01/23 11:09:58;;;;;;;8.40;5.00;;;10.40;1.00;;;;;;5072558;28;20417;-75
2022/01/23 11:17:21;;;;;;;9.63;5.43;;;9.80;1.00;;;;;;5072337;28;20449;-75
2022/01/23 11:18:34;;;;;;;6.70;4.77;;;9.90;1.00;;;;;;5073023;28;20436;-77
2022/01/23 11:21:14;;;;;;;9.20;5.40;;;9.80;1.00;;;;;;5072316;28;20937;-76
2022/01/23 11:23:39;;;;;;;10.57;5.67;;;10.00;1.00;;;;;;5072370;28;20416;-76
2022/01/23 11:26:07;;;;;;;5.30;4.00;;;9.80;1.00;;;;;;5072149;28;20425;-76
2022/01/23 11:28:45;;;;;;;4.83;3.50;;;10.80;1.00;;;;;;5072362;28;20186;-76
2022/01/23 11:31:18;;;;;;;6.73;3.70;;;10.70;1.00;;;;;;5072714;28;20492;-75
2022/01/23 11:33:45;;;;;;;8.17;4.37;;;9.70;1.00;;;;;;5072379;28;20512;-75
2022/01/23 11:36:11;;;;;;;7.27;4.03;;;9.80;1.00;;;;;;5053830;28;20423;-75
2022/01/23 11:38:38;;;;;;;4.97;3.80;;;9.90;1.00;;;;;;5067396;28;20421;-76
2022/01/23 11:55:34;;;;;;;6.10;2.80;;;10.20;1.00;;;;;;5066095;28;20437;-77
2022/01/23 11:58:02;;;;;;;9.77;5.33;;;10.30;1.00;;;;;;5068616;28;20417;-77
2022/01/23 12:00:33;;;;;;;7.77;4.70;;;10.20;1.00;;;;;;5062887;28;20486;-78
2022/01/23 12:03:05;;;;;;;6.20;4.30;;;10.40;1.00;;;;;;5064089;28;20474;-76
2022/01/23 12:05:31;;;;;;;32.40;14.30;;;10.50;1.00;;;;;;5072516;28;20425;-79
2022/01/23 12:08:42;;;;;;;61.53;29.70;;;10.50;1.00;;;;;;5062360;28;20551;-78
2022/01/23 12:16:27;;;;;;;5.50;3.17;;;10.80;1.00;;;;;;5052239;28;20456;-76
2022/01/23 12:19:18;;;;;;;4.03;3.03;;;11.00;1.00;;;;;;5051723;28;20182;-76
2022/01/23 12:21:45;;;;;;;4.27;2.90;;;10.80;1.00;;;;;;5063724;28;20444;-76
2022/01/23 12:24:14;;;;;;;106.47;41.47;;;10.70;1.00;;;;;;5075201;28;20428;-75
2022/01/23 12:26:41;;;;;;;8.50;4.93;;;10.70;1.00;;;;;;5065744;28;20467;-75
2022/01/23 12:29:25;;;;;;;55.00;20.50;;;10.60;1.00;;;;;;5075191;28;20425;-75
2022/01/23 12:32:17;;;;;;;13.63;5.63;;;10.50;1.00;;;;;;5075438;28;20874;-74
2022/01/23 12:34:52;;;;;;;4.13;1.70;;;10.30;1.00;;;;;;5062599;28;20413;-74
2022/01/23 12:37:18;;;;;;;2.00;1.57;;;10.30;1.00;;;;;;5058491;28;20420;-74
2022/01/23 12:39:46;;;;;;;2.83;1.70;;;10.20;1.00;;;;;;5062586;28;20430;-74
2022/01/23 12:42:12;;;;;;;107.03;40.17;;;10.20;1.00;;;;;;5074976;28;20183;-74
2022/01/23 12:44:40;;;;;;;23.33;9.50;;;10.10;1.00;;;;;;5074872;28;20969;-74
2022/01/23 12:47:18;;;;;;;1.30;1.20;;;10.10;1.00;;;;;;5064308;28;20768;-75
2022/01/23 12:49:50;;;;;;;6.80;4.90;;;10.00;1.00;;;;;;5068230;28;20457;-78
2022/01/23 12:52:20;;;;;;;8.90;4.40;;;10.10;1.00;;;;;;5074546;28;20943;-78
2022/01/23 12:54:53;;;;;;;1.40;1.30;;;9.90;1.00;;;;;;5062544;28;20417;-78
2022/01/23 12:57:39;;;;;;;3.17;2.30;;;9.90;1.00;;;;;;5066094;28;20479;-78
2022/01/23 13:00:15;;;;;;;2.80;1.93;;;9.90;1.00;;;;;;5074629;28;20444;-78
2022/01/23 13:02:47;;;;;;;5.07;2.97;;;10.30;1.00;;;;;;5075014;28;20889;-78
2022/01/23 13:05:15;;;;;;;1.53;1.20;;;9.90;1.00;;;;;;5064864;28;20589;-78
2022/01/23 13:10:37;;;;;;;1.33;1.23;;;9.90;1.00;;;;;;5065145;28;20444;-78
2022/01/23 13:13:26;;;;;;;1.30;1.20;;;9.90;1.00;;;;;;5049087;28;20405;-79
2022/01/23 13:16:18;;;;;;;1.07;0.90;;;11.10;1.00;;;;;;5063415;28;20425;-78
2022/01/23 13:28:27;;;;;;;2.40;1.07;;;9.60;1.00;;;;;;5031288;28;20430;-78
2022/01/23 13:30:16;;;;;;;1.30;1.20;;;9.70;1.00;;;;;;5025796;28;20436;-78
2022/01/23 13:32:47;;;;;;;1.50;1.30;;;9.60;1.00;;;;;;5010142;28;20415;-78
2022/01/23 13:35:16;;;;;;;3.03;2.00;;;9.70;1.00;;;;;;5031465;28;20424;-79
2022/01/23 13:37:47;;;;;;;1.83;1.37;;;9.70;1.00;;;;;;5025823;28;20976;-78
2022/01/23 13:40:19;;;;;;;2.47;1.60;;;9.70;1.00;;;;;;5031555;28;20494;-78
2022/01/23 13:59:14;;;;;;;1.27;1.00;;;9.30;1.00;;;;;;5061830;28;20408;-75
2022/01/23 14:04:18;;;;;;;1.70;1.20;;;9.40;1.00;;;;;;5072683;28;20417;-78
2022/01/23 14:06:44;;;;;;;1.40;1.30;;;9.30;1.00;;;;;;5066574;28;20435;-78
2022/01/23 14:09:12;;;;;;;2.13;1.40;;;9.40;1.00;;;;;;5068065;28;20474;-78
2022/01/23 14:11:39;;;;;;;1.80;1.70;;;9.40;1.00;;;;;;5063209;28;20456;-78
2022/01/23 14:14:10;;;;;;;1.90;1.80;;;9.40;1.00;;;;;;5069727;28;20417;-78
2022/01/23 14:16:36;;;;;;;2.07;1.77;;;10.00;1.00;;;;;;5051036;28;20441;-78
2022/01/23 14:19:14;;;;;;;2.93;1.27;;;9.40;1.00;;;;;;5068088;28;20478;-78
2022/01/23 14:21:41;;;;;;;1.53;1.30;;;9.50;1.00;;;;;;5073023;28;20178;-79
2022/01/23 14:24:07;;;;;;;2.07;1.70;;;9.40;1.00;;;;;;5061504;28;20830;-78
2022/01/23 14:26:33;;;;;;;2.13;1.77;;;9.20;1.00;;;;;;5069888;28;20516;-78
2022/01/23 14:29:05;;;;;;;2.10;1.63;;;9.50;1.00;;;;;;5072198;28;20248;-78
2022/01/23 14:31:37;;;;;;;1.67;1.50;;;10.30;1.00;;;;;;5072914;28;20194;-79
2022/01/23 14:34:05;;;;;;;3.87;2.60;;;10.30;1.00;;;;;;5066682;28;20425;-75
2022/01/23 14:36:35;;;;;;;2.47;2.00;;;10.80;1.00;;;;;;5050030;28;20435;-75
2022/01/23 14:39:09;;;;;;;1.70;1.60;;;8.90;1.00;;;;;;5072995;28;20416;-75
2022/01/23 14:41:44;;;;;;;3.40;1.80;;;8.80;1.00;;;;;;5063097;28;20413;-75
2022/01/23 14:44:16;;;;;;;5.33;2.07;;;8.80;1.00;;;;;;5070435;28;20427;-75
2022/01/23 14:46:45;;;;;;;2.83;1.83;;;8.80;1.00;;;;;;5069930;28;20931;-75
2022/01/23 14:49:21;;;;;;;3.53;1.73;;;8.80;1.00;;;;;;5059389;28;20414;-76
2022/01/23 14:51:46;;;;;;;1.67;1.27;;;8.70;1.00;;;;;;5058230;28;20522;-75
2022/01/23 14:54:12;;;;;;;4.20;1.47;;;8.80;1.00;;;;;;5061188;28;20909;-75
2022/01/23 14:56:39;;;;;;;2.63;2.13;;;8.80;1.00;;;;;;5060653;28;20171;-75
2022/01/23 14:59:09;;;;;;;2.37;1.57;;;8.70;1.00;;;;;;5064503;28;20175;-75
2022/01/23 15:01:35;;;;;;;2.83;1.80;;;;;;;;;;5072536;28;20433;-75
2022/01/23 15:04:06;;;;;;;1.90;1.40;;;8.80;1.00;;;;;;5060288;28;20416;-75
2022/01/23 15:06:32;;;;;;;3.47;1.70;;;8.80;1.00;;;;;;5064764;28;20838;-75
2022/01/23 15:09:10;;;;;;;5.37;2.13;;;8.70;1.00;;;;;;5051188;28;20937;-75
2022/01/23 15:11:37;;;;;;;2.40;2.17;;;10.40;1.00;;;;;;5040489;28;20455;-75
2022/01/23 15:14:04;;;;;;;4.33;1.70;;;8.70;1.00;;;;;;5065870;28;20405;-75
2022/01/23 15:16:29;;;;;;;3.33;2.13;;;8.70;1.00;;;;;;5060266;28;20939;-75
2022/01/23 15:18:55;;;;;;;3.20;2.13;;;;;;;;;;5063645;28;20512;-75
2022/01/23 15:21:21;;;;;;;1.90;1.80;;;;;;;;;;5064237;28;20256;-75
2022/01/23 15:23:47;;;;;;;3.60;2.20;;;8.60;1.00;;;;;;5064780;28;20426;-75
2022/01/23 15:26:14;;;;;;;3.20;1.47;;;10.20;1.00;;;;;;5067355;28;20962;-75
2022/01/23 15:28:40;;;;;;;1.57;1.47;;;8.50;1.00;;;;;;5062534;28;20180;-75
2022/01/23 15:31:06;;;;;;;3.03;1.60;;;9.40;1.00;;;;;;5076322;28;20463;-75
2022/01/23 15:33:31;;;;;;;2.83;1.77;;;9.60;1.00;;;;;;5075292;28;20424;-78
2022/01/23 15:35:57;;;;;;;1.67;1.57;;;9.90;1.00;;;;;;5059004;28;20628;-81
2022/01/23 15:38:26;;;;;;;1.87;1.70;;;8.40;1.00;;;;;;5059326;28;20639;-76
2022/01/23 15:40:54;;;;;;;4.77;3.00;;;8.40;1.00;;;;;;5076225;28;20179;-76
2022/01/23 15:43:19;;;;;;;1.87;1.50;;;8.40;1.00;;;;;;5076015;28;20950;-76
2022/01/23 15:45:45;;;;;;;3.60;1.70;;;10.20;1.00;;;;;;5066675;28;20465;-76
2022/01/23 15:48:16;;;;;;;140.40;50.10;;;9.70;1.00;;;;;;5067704;28;20220;-77
2022/01/23 15:50:42;;;;;;;22.53;8.83;;;8.30;1.00;;;;;;5069307;28;20203;-75
2022/01/23 15:53:08;;;;;;;3.17;2.57;;;8.30;1.00;;;;;;5064879;28;20511;-75
2022/01/23 15:55:34;;;;;;;1.37;1.27;;;8.20;1.00;;;;;;5070224;28;20429;-74
2022/01/23 15:57:59;;;;;;;10.40;3.50;;;8.10;1.00;;;;;;5071870;28;20177;-75
2022/01/23 16:00:25;;;;;;;18.50;6.87;;;8.10;1.00;;;;;;5075870;28;20445;-75
2022/01/23 16:02:56;;;;;;;6.20;3.07;;;8.10;1.00;;;;;;5075514;28;20684;-75
2022/01/23 16:05:22;;;;;;;1.80;1.70;;;8.80;1.00;;;;;;5075858;28;20224;-76
2022/01/23 16:07:47;;;;;;;2.27;2.10;;;8.00;1.00;;;;;;5060844;28;20781;-76
2022/01/23 16:10:13;;;;;;;1.67;1.57;;;7.90;1.00;;;;;;5065140;28;20176;-75
2022/01/23 16:12:41;;;;;;;1.30;1.20;;;7.90;1.00;;;;;;5069140;28;20199;-75
2022/01/23 16:15:10;;;;;;;1.63;1.50;;;7.90;1.00;;;;;;5060877;28;20406;-75
2022/01/23 16:17:36;;;;;;;1.63;1.43;;;7.90;1.00;;;;;;5061462;28;20433;-76
2022/01/23 16:20:04;;;;;;;3.50;3.00;;;8.00;1.00;;;;;;5075754;28;20409;-74
2022/01/23 16:22:35;;;;;;;1.97;1.30;;;7.90;1.00;;;;;;5071654;28;20426;-76
2022/01/23 16:25:02;;;;;;;1.70;1.33;;;7.90;1.00;;;;;;5068200;28;20891;-76
2022/01/23 16:27:28;;;;;;;2.77;1.27;;;7.80;1.00;;;;;;5066383;28;20461;-76
2022/01/23 16:29:53;;;;;;;1.17;1.10;;;7.90;1.00;;;;;;5074134;28;20493;-76
2022/01/23 16:32:19;;;;;;;5.70;1.40;;;7.90;1.00;;;;;;5075033;28;20634;-76
2022/01/23 16:34:45;;;;;;;1.47;1.37;;;7.80;1.00;;;;;;5063350;28;20179;-76
2022/01/23 16:37:10;;;;;;;1.30;1.30;;;7.80;1.00;;;;;;5056880;28;20186;-75
2022/01/23 16:39:36;;;;;;;3.00;1.90;;;7.80;1.00;;;;;;5073670;28;20175;-75
2022/01/23 16:42:04;;;;;;;24.77;9.53;;;7.80;1.00;;;;;;5073897;28;20265;-75
2022/01/23 16:44:29;;;;;;;10.40;5.00;;;7.80;1.00;;;;;;5074820;28;20593;-75
2022/01/23 16:46:56;;;;;;;18.40;8.93;;;;;;;;;;5071700;28;20437;-75